sensor_id;sensor_type;location;lat;lon;timestamp;P1;durP1;ratioP1;P2;durP2;ratioP2
79241;SDS011;68670;48.720;9.118;2023-12-14T00:01:14;2.05;;;1.10;;
79241;SDS011;68670;48.720;9.118;2023-12-14T00:03:40;2.17;;;1.20;;
79241;SDS011;68670;48.720;9.118;2023-12-14T00:06:16;2.78;;;0.88;;
79241;SDS011;68670;48.720;9.118;2023-12-14T00:08:41;1.85;;;1.17;;
79241;SDS011;68670;48.720;9.118;2023-12-14T00:11:07;2.10;;;1.00;;
79241;SDS011;68670;48.720;9.118;2023-12-14T00:13:34;5.82;;;1.55;;
79241;SDS011;68670;48.720;9.118;2023-12-14T00:16:00;4.22;;;1.40;;
79241;SDS011;68670;48.720;9.118;2023-12-14T00:18:25;2.42;;;1.27;;
79241;SDS011;68670;48.720;9.118;2023-12-14T00:20:53;4.97;;;1.20;;
79241;SDS011;68670;48.720;9.118;2023-12-14T00:23:22;4.10;;;1.20;;
79241;SDS011;68670;48.720;9.118;2023-12-14T00:25:48;1.73;;;0.82;;
79241;SDS011;68670;48.720;9.118;2023-12-14T00:28:14;2.97;;;0.95;;
79241;SDS011;68670;48.720;9.118;2023-12-14T00:30:41;3.00;;;1.00;;
79241;SDS011;68670;48.720;9.118;2023-12-14T00:33:09;1.65;;;1.00;;
79241;SDS011;68670;48.720;9.118;2023-12-14T00:35:35;2.05;;;0.90;;
79241;SDS011;68670;48.720;9.118;2023-12-14T00:38:00;1.23;;;0.87;;
79241;SDS011;68670;48.720;9.118;2023-12-14T00:40:25;1.80;;;1.10;;
79241;SDS011;68670;48.720;9.118;2023-12-14T00:42:51;1.97;;;0.97;;
79241;SDS011;68670;48.720;9.118;2023-12-14T00:45:16;1.83;;;0.80;;
79241;SDS011;68670;48.720;9.118;2023-12-14T00:47:42;2.67;;;1.02;;
79241;SDS011;68670;48.720;9.118;2023-12-14T00:50:07;2.25;;;1.25;;
79241;SDS011;68670;48.720;9.118;2023-12-14T00:52:33;1.85;;;1.00;;
79241;SDS011;68670;48.720;9.118;2023-12-14T00:54:58;3.60;;;1.13;;
79241;SDS011;68670;48.720;9.118;2023-12-14T00:57:25;2.53;;;1.20;;
79241;SDS011;68670;48.720;9.118;2023-12-14T00:59:53;2.30;;;1.08;;
79241;SDS011;68670;48.720;9.118;2023-12-14T01:02:21;1.70;;;1.20;;
79241;SDS011;68670;48.720;9.118;2023-12-14T01:04:46;4.18;;;1.20;;
79241;SDS011;68670;48.720;9.118;2023-12-14T01:07:12;1.60;;;0.90;;
79241;SDS011;68670;48.720;9.118;2023-12-14T01:09:37;3.17;;;1.03;;
79241;SDS011;68670;48.720;9.118;2023-12-14T01:12:02;2.47;;;1.00;;
79241;SDS011;68670;48.720;9.118;2023-12-14T01:14:28;1.42;;;0.82;;
79241;SDS011;68670;48.720;9.118;2023-12-14T01:16:53;2.40;;;1.13;;
79241;SDS011;68670;48.720;9.118;2023-12-14T01:19:18;1.50;;;0.80;;
79241;SDS011;68670;48.720;9.118;2023-12-14T01:21:44;2.33;;;1.07;;
79241;SDS011;68670;48.720;9.118;2023-12-14T01:24:11;1.70;;;0.90;;
79241;SDS011;68670;48.720;9.118;2023-12-14T01:26:39;0.97;;;0.63;;
79241;SDS011;68670;48.720;9.118;2023-12-14T01:29:07;1.88;;;1.00;;
79241;SDS011;68670;48.720;9.118;2023-12-14T01:31:32;2.70;;;0.97;;
79241;SDS011;68670;48.720;9.118;2023-12-14T01:33:57;2.20;;;0.90;;
79241;SDS011;68670;48.720;9.118;2023-12-14T01:36:23;2.27;;;0.83;;
79241;SDS011;68670;48.720;9.118;2023-12-14T01:38:49;1.80;;;0.88;;
79241;SDS011;68670;48.720;9.118;2023-12-14T01:41:15;2.05;;;1.10;;
79241;SDS011;68670;48.720;9.118;2023-12-14T01:43:43;2.08;;;1.20;;
79241;SDS011;68670;48.720;9.118;2023-12-14T01:46:09;2.17;;;0.80;;
79241;SDS011;68670;48.720;9.118;2023-12-14T01:48:34;2.72;;;0.95;;
79241;SDS011;68670;48.720;9.118;2023-12-14T01:51:02;2.03;;;0.70;;
79241;SDS011;68670;48.720;9.118;2023-12-14T01:53:28;1.75;;;0.60;;
79241;SDS011;68670;48.720;9.118;2023-12-14T01:55:55;2.10;;;0.80;;
79241;SDS011;68670;48.720;9.118;2023-12-14T01:58:21;1.55;;;0.60;;
79241;SDS011;68670;48.720;9.118;2023-12-14T02:00:49;2.17;;;0.80;;
79241;SDS011;68670;48.720;9.118;2023-12-14T02:03:16;1.00;;;0.60;;
79241;SDS011;68670;48.720;9.118;2023-12-14T02:05:43;1.38;;;0.85;;
79241;SDS011;68670;48.720;9.118;2023-12-14T02:08:09;1.10;;;0.63;;
79241;SDS011;68670;48.720;9.118;2023-12-14T02:10:34;2.00;;;1.03;;
79241;SDS011;68670;48.720;9.118;2023-12-14T02:13:05;1.17;;;0.70;;
79241;SDS011;68670;48.720;9.118;2023-12-14T02:15:30;1.90;;;0.95;;
79241;SDS011;68670;48.720;9.118;2023-12-14T02:17:56;1.23;;;0.53;;
79241;SDS011;68670;48.720;9.118;2023-12-14T02:20:23;0.95;;;0.55;;
79241;SDS011;68670;48.720;9.118;2023-12-14T02:22:51;1.35;;;0.50;;
79241;SDS011;68670;48.720;9.118;2023-12-14T02:25:18;0.70;;;0.50;;
79241;SDS011;68670;48.720;9.118;2023-12-14T02:27:44;1.77;;;0.90;;
79241;SDS011;68670;48.720;9.118;2023-12-14T02:30:12;2.58;;;0.70;;
79241;SDS011;68670;48.720;9.118;2023-12-14T02:32:38;2.03;;;0.80;;
79241;SDS011;68670;48.720;9.118;2023-12-14T02:35:06;3.75;;;0.85;;
79241;SDS011;68670;48.720;9.118;2023-12-14T02:37:35;2.25;;;0.90;;
79241;SDS011;68670;48.720;9.118;2023-12-14T02:40:05;2.05;;;1.05;;
79241;SDS011;68670;48.720;9.118;2023-12-14T02:42:34;2.15;;;1.10;;
79241;SDS011;68670;48.720;9.118;2023-12-14T02:45:00;7.55;;;2.45;;
79241;SDS011;68670;48.720;9.118;2023-12-14T02:47:28;2.40;;;1.10;;
79241;SDS011;68670;48.720;9.118;2023-12-14T02:49:55;2.65;;;0.75;;
79241;SDS011;68670;48.720;9.118;2023-12-14T02:52:21;3.08;;;1.35;;
79241;SDS011;68670;48.720;9.118;2023-12-14T02:54:49;2.67;;;1.10;;
79241;SDS011;68670;48.720;9.118;2023-12-14T02:57:17;3.60;;;1.45;;
79241;SDS011;68670;48.720;9.118;2023-12-14T02:59:42;2.90;;;1.08;;
79241;SDS011;68670;48.720;9.118;2023-12-14T03:02:10;4.38;;;1.70;;
79241;SDS011;68670;48.720;9.118;2023-12-14T03:04:38;6.75;;;2.22;;
79241;SDS011;68670;48.720;9.118;2023-12-14T03:07:04;2.90;;;1.20;;
79241;SDS011;68670;48.720;9.118;2023-12-14T03:09:30;3.75;;;1.40;;
79241;SDS011;68670;48.720;9.118;2023-12-14T03:11:55;2.20;;;1.10;;
79241;SDS011;68670;48.720;9.118;2023-12-14T03:14:24;3.33;;;1.58;;
79241;SDS011;68670;48.720;9.118;2023-12-14T03:16:49;5.37;;;1.40;;
79241;SDS011;68670;48.720;9.118;2023-12-14T03:19:15;2.38;;;1.30;;
79241;SDS011;68670;48.720;9.118;2023-12-14T03:21:43;2.95;;;1.23;;
79241;SDS011;68670;48.720;9.118;2023-12-14T03:24:08;2.30;;;0.90;;
79241;SDS011;68670;48.720;9.118;2023-12-14T03:26:36;2.17;;;1.00;;
79241;SDS011;68670;48.720;9.118;2023-12-14T03:29:02;2.58;;;1.27;;
79241;SDS011;68670;48.720;9.118;2023-12-14T03:31:27;3.78;;;0.98;;
79241;SDS011;68670;48.720;9.118;2023-12-14T03:33:55;2.30;;;1.17;;
79241;SDS011;68670;48.720;9.118;2023-12-14T03:36:20;2.63;;;1.10;;
79241;SDS011;68670;48.720;9.118;2023-12-14T03:38:53;4.00;;;1.35;;
79241;SDS011;68670;48.720;9.118;2023-12-14T03:41:19;3.20;;;1.38;;
79241;SDS011;68670;48.720;9.118;2023-12-14T03:43:46;2.67;;;1.60;;
79241;SDS011;68670;48.720;9.118;2023-12-14T03:46:14;3.70;;;1.35;;
79241;SDS011;68670;48.720;9.118;2023-12-14T03:48:42;4.07;;;1.30;;
79241;SDS011;68670;48.720;9.118;2023-12-14T03:51:07;4.20;;;1.63;;
79241;SDS011;68670;48.720;9.118;2023-12-14T03:53:33;2.65;;;1.35;;
79241;SDS011;68670;48.720;9.118;2023-12-14T03:55:58;1.90;;;1.20;;
79241;SDS011;68670;48.720;9.118;2023-12-14T03:58:23;2.65;;;1.50;;
79241;SDS011;68670;48.720;9.118;2023-12-14T04:00:49;2.50;;;1.50;;
79241;SDS011;68670;48.720;9.118;2023-12-14T04:03:14;3.73;;;1.33;;
79241;SDS011;68670;48.720;9.118;2023-12-14T04:05:39;2.35;;;1.20;;
79241;SDS011;68670;48.720;9.118;2023-12-14T04:08:05;1.60;;;1.08;;
79241;SDS011;68670;48.720;9.118;2023-12-14T04:10:30;2.55;;;1.60;;
79241;SDS011;68670;48.720;9.118;2023-12-14T04:12:56;2.78;;;0.98;;
79241;SDS011;68670;48.720;9.118;2023-12-14T04:15:21;2.60;;;1.30;;
79241;SDS011;68670;48.720;9.118;2023-12-14T04:17:47;2.50;;;1.25;;
79241;SDS011;68670;48.720;9.118;2023-12-14T04:20:17;2.20;;;1.00;;
79241;SDS011;68670;48.720;9.118;2023-12-14T04:22:45;2.53;;;1.52;;
79241;SDS011;68670;48.720;9.118;2023-12-14T04:25:10;2.50;;;1.40;;
79241;SDS011;68670;48.720;9.118;2023-12-14T04:27:38;2.42;;;1.10;;
79241;SDS011;68670;48.720;9.118;2023-12-14T04:30:03;4.33;;;1.67;;
79241;SDS011;68670;48.720;9.118;2023-12-14T04:32:29;3.20;;;1.42;;
79241;SDS011;68670;48.720;9.118;2023-12-14T04:34:55;3.20;;;1.52;;
79241;SDS011;68670;48.720;9.118;2023-12-14T04:37:20;3.15;;;1.73;;
79241;SDS011;68670;48.720;9.118;2023-12-14T04:39:48;4.03;;;1.75;;
79241;SDS011;68670;48.720;9.118;2023-12-14T04:42:13;3.85;;;1.83;;
79241;SDS011;68670;48.720;9.118;2023-12-14T04:44:40;3.83;;;1.98;;
79241;SDS011;68670;48.720;9.118;2023-12-14T04:47:10;2.97;;;1.60;;
79241;SDS011;68670;48.720;9.118;2023-12-14T04:49:38;3.30;;;1.95;;
79241;SDS011;68670;48.720;9.118;2023-12-14T04:52:04;4.18;;;2.30;;
79241;SDS011;68670;48.720;9.118;2023-12-14T04:54:29;5.50;;;2.38;;
79241;SDS011;68670;48.720;9.118;2023-12-14T04:56:57;5.03;;;2.13;;
79241;SDS011;68670;48.720;9.118;2023-12-14T04:59:22;5.35;;;2.30;;
79241;SDS011;68670;48.720;9.118;2023-12-14T05:01:48;4.60;;;2.17;;
79241;SDS011;68670;48.720;9.118;2023-12-14T05:04:13;5.10;;;2.03;;
79241;SDS011;68670;48.720;9.118;2023-12-14T05:06:41;4.57;;;2.05;;
79241;SDS011;68670;48.720;9.118;2023-12-14T05:09:08;4.13;;;2.03;;
79241;SDS011;68670;48.720;9.118;2023-12-14T05:11:39;3.63;;;2.03;;
79241;SDS011;68670;48.720;9.118;2023-12-14T05:14:11;3.00;;;1.73;;
79241;SDS011;68670;48.720;9.118;2023-12-14T05:16:39;4.80;;;2.22;;
79241;SDS011;68670;48.720;9.118;2023-12-14T05:19:04;4.37;;;2.47;;
79241;SDS011;68670;48.720;9.118;2023-12-14T05:21:29;3.95;;;2.17;;
79241;SDS011;68670;48.720;9.118;2023-12-14T05:23:57;5.20;;;2.43;;
79241;SDS011;68670;48.720;9.118;2023-12-14T05:26:23;4.15;;;2.22;;
79241;SDS011;68670;48.720;9.118;2023-12-14T05:28:48;5.50;;;2.10;;
79241;SDS011;68670;48.720;9.118;2023-12-14T05:31:13;6.68;;;2.83;;
79241;SDS011;68670;48.720;9.118;2023-12-14T05:33:39;5.07;;;2.43;;
79241;SDS011;68670;48.720;9.118;2023-12-14T05:36:04;5.70;;;2.60;;
79241;SDS011;68670;48.720;9.118;2023-12-14T05:38:34;5.80;;;2.17;;
79241;SDS011;68670;48.720;9.118;2023-12-14T05:40:59;5.72;;;2.20;;
79241;SDS011;68670;48.720;9.118;2023-12-14T05:43:25;6.37;;;2.67;;
79241;SDS011;68670;48.720;9.118;2023-12-14T05:45:50;6.40;;;2.80;;
79241;SDS011;68670;48.720;9.118;2023-12-14T05:48:15;4.93;;;2.47;;
79241;SDS011;68670;48.720;9.118;2023-12-14T05:50:45;5.15;;;2.58;;
79241;SDS011;68670;48.720;9.118;2023-12-14T05:53:11;5.90;;;2.90;;
79241;SDS011;68670;48.720;9.118;2023-12-14T05:55:38;5.72;;;2.58;;
79241;SDS011;68670;48.720;9.118;2023-12-14T05:58:06;5.28;;;2.80;;
79241;SDS011;68670;48.720;9.118;2023-12-14T06:00:35;6.38;;;3.38;;
79241;SDS011;68670;48.720;9.118;2023-12-14T06:03:01;4.72;;;2.72;;
79241;SDS011;68670;48.720;9.118;2023-12-14T06:05:29;8.48;;;2.90;;
79241;SDS011;68670;48.720;9.118;2023-12-14T06:07:57;5.40;;;2.70;;
79241;SDS011;68670;48.720;9.118;2023-12-14T06:10:22;6.85;;;2.78;;
79241;SDS011;68670;48.720;9.118;2023-12-14T06:12:48;5.95;;;3.10;;
79241;SDS011;68670;48.720;9.118;2023-12-14T06:15:15;5.72;;;2.65;;
79241;SDS011;68670;48.720;9.118;2023-12-14T06:17:41;4.68;;;2.47;;
79241;SDS011;68670;48.720;9.118;2023-12-14T06:20:07;4.95;;;2.67;;
79241;SDS011;68670;48.720;9.118;2023-12-14T06:22:39;6.32;;;2.60;;
79241;SDS011;68670;48.720;9.118;2023-12-14T06:25:06;6.00;;;2.90;;
79241;SDS011;68670;48.720;9.118;2023-12-14T06:27:34;10.55;;;3.30;;
79241;SDS011;68670;48.720;9.118;2023-12-14T06:30:00;9.45;;;3.40;;
79241;SDS011;68670;48.720;9.118;2023-12-14T06:32:25;8.85;;;3.30;;
79241;SDS011;68670;48.720;9.118;2023-12-14T06:34:53;7.68;;;3.10;;
79241;SDS011;68670;48.720;9.118;2023-12-14T06:37:20;6.13;;;3.22;;
79241;SDS011;68670;48.720;9.118;2023-12-14T06:39:46;7.50;;;3.10;;
79241;SDS011;68670;48.720;9.118;2023-12-14T06:42:11;5.77;;;3.23;;
79241;SDS011;68670;48.720;9.118;2023-12-14T06:44:39;7.40;;;3.22;;
79241;SDS011;68670;48.720;9.118;2023-12-14T06:47:04;7.32;;;3.40;;
79241;SDS011;68670;48.720;9.118;2023-12-14T06:49:29;7.53;;;3.00;;
79241;SDS011;68670;48.720;9.118;2023-12-14T06:51:55;6.17;;;2.80;;
79241;SDS011;68670;48.720;9.118;2023-12-14T06:54:20;6.47;;;3.00;;
79241;SDS011;68670;48.720;9.118;2023-12-14T06:56:45;4.40;;;2.60;;
79241;SDS011;68670;48.720;9.118;2023-12-14T06:59:12;4.07;;;2.15;;
79241;SDS011;68670;48.720;9.118;2023-12-14T07:01:40;6.27;;;2.87;;
79241;SDS011;68670;48.720;9.118;2023-12-14T07:04:08;6.20;;;2.40;;
79241;SDS011;68670;48.720;9.118;2023-12-14T07:06:36;4.95;;;2.20;;
79241;SDS011;68670;48.720;9.118;2023-12-14T07:09:03;4.00;;;2.53;;
79241;SDS011;68670;48.720;9.118;2023-12-14T07:11:28;4.03;;;1.88;;
79241;SDS011;68670;48.720;9.118;2023-12-14T07:13:56;6.13;;;2.10;;
79241;SDS011;68670;48.720;9.118;2023-12-14T07:16:23;4.20;;;1.83;;
79241;SDS011;68670;48.720;9.118;2023-12-14T07:18:49;5.35;;;2.13;;
79241;SDS011;68670;48.720;9.118;2023-12-14T07:21:14;4.40;;;2.27;;
79241;SDS011;68670;48.720;9.118;2023-12-14T07:23:42;5.85;;;2.00;;
79241;SDS011;68670;48.720;9.118;2023-12-14T07:26:07;5.65;;;2.00;;
79241;SDS011;68670;48.720;9.118;2023-12-14T07:28:33;3.05;;;1.75;;
79241;SDS011;68670;48.720;9.118;2023-12-14T07:30:59;4.43;;;1.75;;
79241;SDS011;68670;48.720;9.118;2023-12-14T07:33:26;3.33;;;1.55;;
79241;SDS011;68670;48.720;9.118;2023-12-14T07:35:52;3.60;;;1.58;;
79241;SDS011;68670;48.720;9.118;2023-12-14T07:38:19;2.30;;;1.17;;
79241;SDS011;68670;48.720;9.118;2023-12-14T07:40:47;3.67;;;1.15;;
79241;SDS011;68670;48.720;9.118;2023-12-14T07:43:12;5.10;;;1.70;;
79241;SDS011;68670;48.720;9.118;2023-12-14T07:45:38;3.05;;;1.55;;
79241;SDS011;68670;48.720;9.118;2023-12-14T07:48:05;4.38;;;1.42;;
79241;SDS011;68670;48.720;9.118;2023-12-14T07:50:31;4.47;;;1.50;;
79241;SDS011;68670;48.720;9.118;2023-12-14T07:52:58;5.75;;;1.83;;
79241;SDS011;68670;48.720;9.118;2023-12-14T07:55:26;4.53;;;1.58;;
79241;SDS011;68670;48.720;9.118;2023-12-14T07:57:51;3.22;;;1.52;;
79241;SDS011;68670;48.720;9.118;2023-12-14T08:00:19;2.88;;;1.67;;
79241;SDS011;68670;48.720;9.118;2023-12-14T08:02:49;3.33;;;1.80;;
79241;SDS011;68670;48.720;9.118;2023-12-14T08:05:17;3.03;;;1.60;;
79241;SDS011;68670;48.720;9.118;2023-12-14T08:07:44;3.85;;;1.70;;
79241;SDS011;68670;48.720;9.118;2023-12-14T08:10:12;2.78;;;1.65;;
79241;SDS011;68670;48.720;9.118;2023-12-14T08:12:40;4.32;;;1.60;;
79241;SDS011;68670;48.720;9.118;2023-12-14T08:15:05;4.13;;;1.80;;
79241;SDS011;68670;48.720;9.118;2023-12-14T08:17:37;4.72;;;1.98;;
79241;SDS011;68670;48.720;9.118;2023-12-14T08:20:02;5.27;;;2.20;;
79241;SDS011;68670;48.720;9.118;2023-12-14T08:22:34;3.30;;;1.70;;
79241;SDS011;68670;48.720;9.118;2023-12-14T08:24:59;4.00;;;2.20;;
79241;SDS011;68670;48.720;9.118;2023-12-14T08:27:28;4.60;;;1.80;;
79241;SDS011;68670;48.720;9.118;2023-12-14T08:29:58;3.83;;;2.10;;
79241;SDS011;68670;48.720;9.118;2023-12-14T08:32:28;5.20;;;2.20;;
79241;SDS011;68670;48.720;9.118;2023-12-14T08:34:56;3.97;;;1.95;;
79241;SDS011;68670;48.720;9.118;2023-12-14T08:37:21;25.53;;;10.63;;
79241;SDS011;68670;48.720;9.118;2023-12-14T08:39:48;8.23;;;3.05;;
79241;SDS011;68670;48.720;9.118;2023-12-14T08:42:16;5.38;;;2.30;;
79241;SDS011;68670;48.720;9.118;2023-12-14T08:44:44;3.72;;;1.90;;
79241;SDS011;68670;48.720;9.118;2023-12-14T08:47:09;4.78;;;2.13;;
79241;SDS011;68670;48.720;9.118;2023-12-14T08:49:39;5.28;;;2.08;;
79241;SDS011;68670;48.720;9.118;2023-12-14T08:52:07;5.00;;;2.38;;
79241;SDS011;68670;48.720;9.118;2023-12-14T08:54:32;4.90;;;2.20;;
79241;SDS011;68670;48.720;9.118;2023-12-14T08:56:57;5.93;;;2.27;;
79241;SDS011;68670;48.720;9.118;2023-12-14T08:59:23;4.07;;;2.10;;
79241;SDS011;68670;48.720;9.118;2023-12-14T09:01:49;4.28;;;2.17;;
79241;SDS011;68670;48.720;9.118;2023-12-14T09:04:16;4.43;;;2.30;;
79241;SDS011;68670;48.720;9.118;2023-12-14T09:06:41;5.63;;;2.70;;
79241;SDS011;68670;48.720;9.118;2023-12-14T09:09:09;4.78;;;2.70;;
79241;SDS011;68670;48.720;9.118;2023-12-14T09:11:40;5.72;;;2.75;;
79241;SDS011;68670;48.720;9.118;2023-12-14T09:14:07;7.05;;;2.55;;
79241;SDS011;68670;48.720;9.118;2023-12-14T09:16:35;5.53;;;2.55;;
79241;SDS011;68670;48.720;9.118;2023-12-14T09:19:00;5.33;;;2.90;;
79241;SDS011;68670;48.720;9.118;2023-12-14T09:21:28;6.05;;;2.97;;
79241;SDS011;68670;48.720;9.118;2023-12-14T09:23:58;7.03;;;2.70;;
79241;SDS011;68670;48.720;9.118;2023-12-14T09:26:23;7.43;;;2.90;;
79241;SDS011;68670;48.720;9.118;2023-12-14T09:28:48;5.95;;;2.85;;
79241;SDS011;68670;48.720;9.118;2023-12-14T09:31:16;7.03;;;3.33;;
79241;SDS011;68670;48.720;9.118;2023-12-14T09:33:42;6.93;;;2.90;;
79241;SDS011;68670;48.720;9.118;2023-12-14T09:36:07;9.55;;;2.83;;
79241;SDS011;68670;48.720;9.118;2023-12-14T09:38:33;8.65;;;3.63;;
79241;SDS011;68670;48.720;9.118;2023-12-14T09:41:04;7.25;;;3.45;;
79241;SDS011;68670;48.720;9.118;2023-12-14T09:43:30;8.48;;;3.47;;
79241;SDS011;68670;48.720;9.118;2023-12-14T09:45:57;8.02;;;4.00;;
79241;SDS011;68670;48.720;9.118;2023-12-14T09:48:23;8.02;;;3.90;;
79241;SDS011;68670;48.720;9.118;2023-12-14T09:50:51;11.63;;;4.32;;
79241;SDS011;68670;48.720;9.118;2023-12-14T09:53:21;10.85;;;4.60;;
79241;SDS011;68670;48.720;9.118;2023-12-14T09:55:49;10.98;;;4.18;;
79241;SDS011;68670;48.720;9.118;2023-12-14T09:58:17;13.25;;;5.55;;
79241;SDS011;68670;48.720;9.118;2023-12-14T10:00:42;9.17;;;4.13;;
79241;SDS011;68670;48.720;9.118;2023-12-14T10:03:24;11.10;;;4.22;;
79241;SDS011;68670;48.720;9.118;2023-12-14T10:05:54;9.63;;;4.82;;
79241;SDS011;68670;48.720;9.118;2023-12-14T10:08:20;9.85;;;4.45;;
79241;SDS011;68670;48.720;9.118;2023-12-14T10:10:50;8.80;;;3.47;;
79241;SDS011;68670;48.720;9.118;2023-12-14T10:13:21;8.73;;;3.63;;
79241;SDS011;68670;48.720;9.118;2023-12-14T10:16:00;7.95;;;3.22;;
79241;SDS011;68670;48.720;9.118;2023-12-14T10:18:27;9.05;;;3.65;;
79241;SDS011;68670;48.720;9.118;2023-12-14T10:20:54;6.70;;;3.20;;
79241;SDS011;68670;48.720;9.118;2023-12-14T10:23:20;6.47;;;3.10;;
79241;SDS011;68670;48.720;9.118;2023-12-14T10:25:46;5.47;;;3.05;;
79241;SDS011;68670;48.720;9.118;2023-12-14T10:28:12;7.78;;;3.17;;
79241;SDS011;68670;48.720;9.118;2023-12-14T10:30:41;8.32;;;3.33;;
79241;SDS011;68670;48.720;9.118;2023-12-14T10:33:11;5.07;;;2.85;;
79241;SDS011;68670;48.720;9.118;2023-12-14T10:35:36;5.40;;;2.87;;
79241;SDS011;68670;48.720;9.118;2023-12-14T10:38:04;7.07;;;2.35;;
79241;SDS011;68670;48.720;9.118;2023-12-14T10:40:33;5.95;;;2.92;;
79241;SDS011;68670;48.720;9.118;2023-12-14T10:43:08;7.05;;;2.67;;
79241;SDS011;68670;48.720;9.118;2023-12-14T10:45:39;5.93;;;2.63;;
79241;SDS011;68670;48.720;9.118;2023-12-14T10:48:08;6.25;;;2.80;;
79241;SDS011;68670;48.720;9.118;2023-12-14T10:50:34;14.73;;;6.00;;
79241;SDS011;68670;48.720;9.118;2023-12-14T10:53:01;9.75;;;3.58;;
79241;SDS011;68670;48.720;9.118;2023-12-14T10:55:31;8.88;;;2.92;;
79241;SDS011;68670;48.720;9.118;2023-12-14T10:58:04;6.70;;;2.47;;
79241;SDS011;68670;48.720;9.118;2023-12-14T11:00:33;4.25;;;2.45;;
79241;SDS011;68670;48.720;9.118;2023-12-14T11:02:58;4.55;;;2.60;;
79241;SDS011;68670;48.720;9.118;2023-12-14T11:05:27;6.82;;;2.90;;
79241;SDS011;68670;48.720;9.118;2023-12-14T11:07:56;5.15;;;2.80;;
79241;SDS011;68670;48.720;9.118;2023-12-14T11:10:36;8.25;;;2.53;;
79241;SDS011;68670;48.720;9.118;2023-12-14T11:15:35;5.82;;;2.15;;
79241;SDS011;68670;48.720;9.118;2023-12-14T11:23:13;4.82;;;2.35;;
79241;SDS011;68670;48.720;9.118;2023-12-14T11:25:59;7.07;;;2.28;;
79241;SDS011;68670;48.720;9.118;2023-12-14T11:28:32;4.85;;;2.50;;
79241;SDS011;68670;48.720;9.118;2023-12-14T11:31:02;6.82;;;2.20;;
79241;SDS011;68670;48.720;9.118;2023-12-14T11:33:31;4.07;;;2.15;;
79241;SDS011;68670;48.720;9.118;2023-12-14T11:35:58;6.28;;;2.35;;
79241;SDS011;68670;48.720;9.118;2023-12-14T11:38:24;3.10;;;1.65;;
79241;SDS011;68670;48.720;9.118;2023-12-14T11:40:49;5.00;;;1.98;;
79241;SDS011;68670;48.720;9.118;2023-12-14T11:43:15;11.77;;;5.78;;
79241;SDS011;68670;48.720;9.118;2023-12-14T11:45:45;6.38;;;2.25;;
79241;SDS011;68670;48.720;9.118;2023-12-14T11:48:15;3.15;;;1.90;;
79241;SDS011;68670;48.720;9.118;2023-12-14T11:50:41;2.55;;;1.33;;
79241;SDS011;68670;48.720;9.118;2023-12-14T11:53:07;3.42;;;1.30;;
79241;SDS011;68670;48.720;9.118;2023-12-14T11:55:37;3.40;;;1.33;;
79241;SDS011;68670;48.720;9.118;2023-12-14T11:58:08;3.47;;;1.20;;
79241;SDS011;68670;48.720;9.118;2023-12-14T12:00:36;1.92;;;1.08;;
79241;SDS011;68670;48.720;9.118;2023-12-14T12:03:09;2.15;;;1.02;;
79241;SDS011;68670;48.720;9.118;2023-12-14T12:05:36;1.88;;;0.90;;
79241;SDS011;68670;48.720;9.118;2023-12-14T12:08:06;2.88;;;1.10;;
79241;SDS011;68670;48.720;9.118;2023-12-14T12:10:31;1.55;;;1.00;;
79241;SDS011;68670;48.720;9.118;2023-12-14T12:13:01;4.00;;;1.30;;
79241;SDS011;68670;48.720;9.118;2023-12-14T12:15:28;1.83;;;1.10;;
79241;SDS011;68670;48.720;9.118;2023-12-14T12:17:53;1.67;;;1.10;;
79241;SDS011;68670;48.720;9.118;2023-12-14T12:20:20;2.95;;;1.05;;
79241;SDS011;68670;48.720;9.118;2023-12-14T12:22:46;2.40;;;1.10;;
79241;SDS011;68670;48.720;9.118;2023-12-14T12:25:11;2.53;;;1.17;;
79241;SDS011;68670;48.720;9.118;2023-12-14T12:27:36;2.30;;;1.20;;
79241;SDS011;68670;48.720;9.118;2023-12-14T12:30:02;2.50;;;1.20;;
79241;SDS011;68670;48.720;9.118;2023-12-14T12:32:28;4.97;;;2.17;;
79241;SDS011;68670;48.720;9.118;2023-12-14T12:34:53;5.23;;;2.50;;
79241;SDS011;68670;48.720;9.118;2023-12-14T12:37:21;3.03;;;1.20;;
79241;SDS011;68670;48.720;9.118;2023-12-14T12:39:47;3.63;;;1.30;;
79241;SDS011;68670;48.720;9.118;2023-12-14T12:42:15;3.63;;;1.20;;
79241;SDS011;68670;48.720;9.118;2023-12-14T12:44:41;2.08;;;1.05;;
79241;SDS011;68670;48.720;9.118;2023-12-14T12:47:06;2.45;;;1.05;;
79241;SDS011;68670;48.720;9.118;2023-12-14T12:49:34;2.60;;;1.33;;
79241;SDS011;68670;48.720;9.118;2023-12-14T12:51:59;1.90;;;1.23;;
79241;SDS011;68670;48.720;9.118;2023-12-14T12:54:28;2.95;;;1.30;;
79241;SDS011;68670;48.720;9.118;2023-12-14T12:56:55;3.30;;;1.50;;
79241;SDS011;68670;48.720;9.118;2023-12-14T12:59:21;2.88;;;1.30;;
79241;SDS011;68670;48.720;9.118;2023-12-14T13:01:46;3.20;;;1.20;;
79241;SDS011;68670;48.720;9.118;2023-12-14T13:04:22;2.40;;;1.13;;
79241;SDS011;68670;48.720;9.118;2023-12-14T13:06:50;2.80;;;1.08;;
79241;SDS011;68670;48.720;9.118;2023-12-14T13:09:16;2.75;;;1.30;;
79241;SDS011;68670;48.720;9.118;2023-12-14T13:11:42;2.55;;;1.30;;
79241;SDS011;68670;48.720;9.118;2023-12-14T13:14:10;3.30;;;1.15;;
79241;SDS011;68670;48.720;9.118;2023-12-14T13:16:43;2.50;;;1.13;;
79241;SDS011;68670;48.720;9.118;2023-12-14T13:19:08;2.35;;;1.10;;
79241;SDS011;68670;48.720;9.118;2023-12-14T13:21:36;4.32;;;1.40;;
79241;SDS011;68670;48.720;9.118;2023-12-14T13:24:06;3.88;;;1.52;;
79241;SDS011;68670;48.720;9.118;2023-12-14T13:26:31;2.50;;;1.13;;
79241;SDS011;68670;48.720;9.118;2023-12-14T13:28:57;2.40;;;1.17;;
79241;SDS011;68670;48.720;9.118;2023-12-14T13:31:22;2.40;;;0.97;;
79241;SDS011;68670;48.720;9.118;2023-12-14T13:33:50;2.95;;;1.30;;
79241;SDS011;68670;48.720;9.118;2023-12-14T13:36:18;2.67;;;1.20;;
79241;SDS011;68670;48.720;9.118;2023-12-14T13:38:44;3.85;;;1.58;;
79241;SDS011;68670;48.720;9.118;2023-12-14T13:41:12;3.00;;;1.90;;
79241;SDS011;68670;48.720;9.118;2023-12-14T13:43:37;3.45;;;1.60;;
79241;SDS011;68670;48.720;9.118;2023-12-14T13:46:03;7.50;;;2.00;;
79241;SDS011;68670;48.720;9.118;2023-12-14T13:48:28;6.45;;;2.92;;
79241;SDS011;68670;48.720;9.118;2023-12-14T13:50:54;5.47;;;2.03;;
79241;SDS011;68670;48.720;9.118;2023-12-14T13:53:24;5.13;;;1.90;;
79241;SDS011;68670;48.720;9.118;2023-12-14T13:55:50;2.95;;;1.60;;
79241;SDS011;68670;48.720;9.118;2023-12-14T13:58:20;3.60;;;2.13;;
79241;SDS011;68670;48.720;9.118;2023-12-14T14:00:45;4.30;;;1.77;;
79241;SDS011;68670;48.720;9.118;2023-12-14T14:03:13;3.45;;;1.80;;
79241;SDS011;68670;48.720;9.118;2023-12-14T14:05:38;5.22;;;1.77;;
79241;SDS011;68670;48.720;9.118;2023-12-14T14:08:08;4.18;;;2.08;;
79241;SDS011;68670;48.720;9.118;2023-12-14T14:10:36;4.30;;;2.15;;
79241;SDS011;68670;48.720;9.118;2023-12-14T14:13:01;4.22;;;2.33;;
79241;SDS011;68670;48.720;9.118;2023-12-14T14:15:27;5.53;;;2.60;;
79241;SDS011;68670;48.720;9.118;2023-12-14T14:17:52;4.82;;;2.33;;
79241;SDS011;68670;48.720;9.118;2023-12-14T14:20:19;7.10;;;2.90;;
79241;SDS011;68670;48.720;9.118;2023-12-14T14:22:44;7.40;;;2.80;;
79241;SDS011;68670;48.720;9.118;2023-12-14T14:25:14;6.55;;;2.70;;
79241;SDS011;68670;48.720;9.118;2023-12-14T14:27:44;7.30;;;2.70;;
79241;SDS011;68670;48.720;9.118;2023-12-14T14:30:12;5.22;;;2.67;;
79241;SDS011;68670;48.720;9.118;2023-12-14T14:32:38;6.50;;;3.25;;
79241;SDS011;68670;48.720;9.118;2023-12-14T14:35:04;10.38;;;4.00;;
79241;SDS011;68670;48.720;9.118;2023-12-14T14:37:29;12.00;;;4.75;;
79241;SDS011;68670;48.720;9.118;2023-12-14T14:39:57;6.63;;;3.00;;
79241;SDS011;68670;48.720;9.118;2023-12-14T14:42:28;4.72;;;2.22;;
79241;SDS011;68670;48.720;9.118;2023-12-14T14:44:53;5.63;;;2.65;;
79241;SDS011;68670;48.720;9.118;2023-12-14T14:47:19;5.10;;;2.38;;
79241;SDS011;68670;48.720;9.118;2023-12-14T14:49:44;5.63;;;2.33;;
79241;SDS011;68670;48.720;9.118;2023-12-14T14:52:14;6.65;;;2.92;;
79241;SDS011;68670;48.720;9.118;2023-12-14T14:54:40;5.47;;;2.45;;